sensor_id;sensor_type;location;lat;lon;timestamp;pressure;altitude;pressure_sealevel;temperature;humidity
10824;BME280;39116;59.332;18.034;2023-04-07T00:00:13;102054.84;;;2.41;100.00
10824;BME280;39116;59.332;18.034;2023-04-07T00:02:35;102181.31;;;3.32;100.00
10824;BME280;39116;59.332;18.034;2023-04-07T00:04:57;102173.63;;;3.19;100.00
10824;BME280;39116;59.332;18.034;2023-04-07T00:07:20;102169.09;;;3.15;100.00
10824;BME280;39116;59.332;18.034;2023-04-07T00:09:42;102168.06;;;3.26;100.00
10824;BME280;39116;59.332;18.034;2023-04-07T00:12:04;102157.88;;;3.42;100.00
10824;BME280;39116;59.332;18.034;2023-04-07T00:14:26;102160.44;;;3.42;100.00
10824;BME280;39116;59.332;18.034;2023-04-07T00:16:48;102162.88;;;3.39;100.00
10824;BME280;39116;59.332;18.034;2023-04-07T00:19:10;102163.88;;;3.28;100.00
10824;BME280;39116;59.332;18.034;2023-04-07T00:21:32;102161.06;;;3.38;100.00
10824;BME280;39116;59.332;18.034;2023-04-07T00:23:55;102170.19;;;3.33;100.00
10824;BME280;39116;59.332;18.034;2023-04-07T00:26:18;102149.47;;;3.17;100.00
10824;BME280;39116;59.332;18.034;2023-04-07T00:28:40;102139.06;;;3.00;100.00
10824;BME280;39116;59.332;18.034;2023-04-07T00:31:02;102156.44;;;3.18;100.00
10824;BME280;39116;59.332;18.034;2023-04-07T00:33:24;102158.09;;;2.89;100.00
10824;BME280;39116;59.332;18.034;2023-04-07T00:35:46;102155.84;;;3.09;100.00
10824;BME280;39116;59.332;18.034;2023-04-07T00:38:08;102159.78;;;3.17;100.00
10824;BME280;39116;59.332;18.034;2023-04-07T00:40:31;102163.19;;;3.31;100.00
10824;BME280;39116;59.332;18.034;2023-04-07T00:42:53;102162.44;;;3.18;100.00
10824;BME280;39116;59.332;18.034;2023-04-07T00:45:15;102165.28;;;3.23;100.00
10824;BME280;39116;59.332;18.034;2023-04-07T00:47:37;102164.06;;;3.31;100.00
10824;BME280;39116;59.332;18.034;2023-04-07T00:49:59;102153.03;;;3.19;100.00
10824;BME280;39116;59.332;18.034;2023-04-07T00:52:21;102165.44;;;3.39;100.00
10824;BME280;39116;59.332;18.034;2023-04-07T00:54:48;102167.31;;;3.42;100.00
10824;BME280;39116;59.332;18.034;2023-04-07T00:57:13;102162.47;;;3.33;100.00
10824;BME280;39116;59.332;18.034;2023-04-07T00:59:36;102151.97;;;3.15;100.00
10824;BME280;39116;59.332;18.034;2023-04-07T01:02:02;102150.91;;;3.27;100.00
10824;BME280;39116;59.332;18.034;2023-04-07T01:04:30;102146.38;;;2.94;100.00
10824;BME280;39116;59.332;18.034;2023-04-07T01:06:58;102148.28;;;2.83;100.00
10824;BME280;39116;59.332;18.034;2023-04-07T01:09:25;102147.28;;;3.23;100.00
10824;BME280;39116;59.332;18.034;2023-04-07T01:11:56;102147.78;;;3.17;100.00
10824;BME280;39116;59.332;18.034;2023-04-07T01:14:22;102149.91;;;3.38;100.00
10824;BME280;39116;59.332;18.034;2023-04-07T01:16:48;102125.72;;;3.21;100.00
10824;BME280;39116;59.332;18.034;2023-04-07T01:19:15;102145.13;;;3.16;100.00
10824;BME280;39116;59.332;18.034;2023-04-07T01:21:39;102152.13;;;3.03;100.00
10824;BME280;39116;59.332;18.034;2023-04-07T01:24:18;102146.16;;;3.33;100.00
10824;BME280;39116;59.332;18.034;2023-04-07T01:26:43;102142.19;;;3.10;100.00
10824;BME280;39116;59.332;18.034;2023-04-07T01:29:31;102120.81;;;2.82;100.00
10824;BME280;39116;59.332;18.034;2023-04-07T01:31:55;102143.88;;;3.09;100.00
10824;BME280;39116;59.332;18.034;2023-04-07T01:34:19;102124.94;;;2.94;100.00
10824;BME280;39116;59.332;18.034;2023-04-07T01:36:42;102137.38;;;3.29;100.00
10824;BME280;39116;59.332;18.034;2023-04-07T01:39:06;102136.16;;;3.09;100.00
10824;BME280;39116;59.332;18.034;2023-04-07T01:41:29;102136.53;;;3.30;100.00
10824;BME280;39116;59.332;18.034;2023-04-07T01:43:52;102129.63;;;3.29;100.00
10824;BME280;39116;59.332;18.034;2023-04-07T01:46:15;102136.22;;;3.39;100.00
10824;BME280;39116;59.332;18.034;2023-04-07T01:48:38;102142.50;;;3.29;100.00
10824;BME280;39116;59.332;18.034;2023-04-07T01:51:01;102127.09;;;3.16;100.00
10824;BME280;39116;59.332;18.034;2023-04-07T01:53:24;102130.16;;;3.23;100.00
10824;BME280;39116;59.332;18.034;2023-04-07T01:55:46;102136.00;;;3.21;100.00
10824;BME280;39116;59.332;18.034;2023-04-07T01:58:08;102137.41;;;3.16;100.00
10824;BME280;39116;59.332;18.034;2023-04-07T02:00:30;102127.31;;;3.34;100.00
10824;BME280;39116;59.332;18.034;2023-04-07T02:02:58;101981.94;;;2.26;100.00
10824;BME280;39116;59.332;18.034;2023-04-07T02:05:23;102133.53;;;2.94;100.00
10824;BME280;39116;59.332;18.034;2023-04-07T02:07:51;102129.41;;;3.39;100.00
10824;BME280;39116;59.332;18.034;2023-04-07T02:10:15;102140.13;;;3.32;100.00
10824;BME280;39116;59.332;18.034;2023-04-07T02:12:38;102147.22;;;3.21;100.00
10824;BME280;39116;59.332;18.034;2023-04-07T02:15:02;102143.16;;;3.12;100.00
10824;BME280;39116;59.332;18.034;2023-04-07T02:17:26;102139.69;;;2.96;100.00
10824;BME280;39116;59.332;18.034;2023-04-07T02:19:50;102149.59;;;3.18;100.00
10824;BME280;39116;59.332;18.034;2023-04-07T02:22:14;102153.44;;;3.25;100.00
10824;BME280;39116;59.332;18.034;2023-04-07T02:24:40;102144.66;;;3.36;100.00
10824;BME280;39116;59.332;18.034;2023-04-07T02:27:02;102152.13;;;2.90;100.00
10824;BME280;39116;59.332;18.034;2023-04-07T02:29:24;102142.25;;;2.96;100.00
10824;BME280;39116;59.332;18.034;2023-04-07T02:31:46;102146.00;;;2.88;100.00
10824;BME280;39116;59.332;18.034;2023-04-07T02:34:08;102157.13;;;2.74;100.00
10824;BME280;39116;59.332;18.034;2023-04-07T02:36:31;102148.53;;;3.01;100.00
10824;BME280;39116;59.332;18.034;2023-04-07T02:38:53;102150.19;;;2.73;100.00
10824;BME280;39116;59.332;18.034;2023-04-07T02:41:16;102153.47;;;2.70;100.00
10824;BME280;39116;59.332;18.034;2023-04-07T02:43:37;102149.34;;;2.59;100.00
10824;BME280;39116;59.332;18.034;2023-04-07T02:45:59;102154.75;;;2.63;100.00
10824;BME280;39116;59.332;18.034;2023-04-07T02:48:21;102154.75;;;2.63;100.00
10824;BME280;39116;59.332;18.034;2023-04-07T02:50:43;102154.19;;;2.67;100.00
10824;BME280;39116;59.332;18.034;2023-04-07T02:53:07;102149.06;;;2.54;100.00
10824;BME280;39116;59.332;18.034;2023-04-07T02:55:29;102156.03;;;2.70;100.00
10824;BME280;39116;59.332;18.034;2023-04-07T02:57:51;102147.03;;;2.77;100.00
10824;BME280;39116;59.332;18.034;2023-04-07T03:00:14;102150.97;;;2.85;100.00
10824;BME280;39116;59.332;18.034;2023-04-07T03:02:36;102145.44;;;2.79;100.00
10824;BME280;39116;59.332;18.034;2023-04-07T03:04:58;102151.75;;;2.42;100.00
10824;BME280;39116;59.332;18.034;2023-04-07T03:07:20;102149.06;;;2.54;100.00
10824;BME280;39116;59.332;18.034;2023-04-07T03:09:43;102141.22;;;2.66;100.00
10824;BME280;39116;59.332;18.034;2023-04-07T03:12:05;102143.31;;;2.45;100.00
10824;BME280;39116;59.332;18.034;2023-04-07T03:14:27;102166.41;;;2.85;100.00
10824;BME280;39116;59.332;18.034;2023-04-07T03:16:49;102110.41;;;2.39;100.00
10824;BME280;39116;59.332;18.034;2023-04-07T03:19:11;102154.50;;;2.59;100.00
10824;BME280;39116;59.332;18.034;2023-04-07T03:21:33;102142.22;;;2.68;100.00
10824;BME280;39116;59.332;18.034;2023-04-07T03:23:55;102156.53;;;2.78;100.00
10824;BME280;39116;59.332;18.034;2023-04-07T03:26:18;102162.53;;;2.92;100.00
10824;BME280;39116;59.332;18.034;2023-04-07T03:28:41;102163.44;;;2.79;100.00
10824;BME280;39116;59.332;18.034;2023-04-07T03:31:03;102172.69;;;3.03;100.00
10824;BME280;39116;59.332;18.034;2023-04-07T03:33:24;102143.22;;;2.43;100.00
10824;BME280;39116;59.332;18.034;2023-04-07T03:35:46;102165.25;;;2.66;100.00
10824;BME280;39116;59.332;18.034;2023-04-07T03:38:08;102165.03;;;2.77;100.00
10824;BME280;39116;59.332;18.034;2023-04-07T03:40:30;102163.59;;;2.95;100.00
10824;BME280;39116;59.332;18.034;2023-04-07T03:42:54;102161.09;;;2.82;100.00
10824;BME280;39116;59.332;18.034;2023-04-07T03:45:16;102160.31;;;2.56;100.00
10824;BME280;39116;59.332;18.034;2023-04-07T03:47:38;102166.38;;;2.57;100.00
10824;BME280;39116;59.332;18.034;2023-04-07T03:50:00;102167.63;;;2.63;100.00
10824;BME280;39116;59.332;18.034;2023-04-07T03:52:22;102142.31;;;2.56;100.00
10824;BME280;39116;59.332;18.034;2023-04-07T03:54:44;102172.16;;;2.81;100.00
10824;BME280;39116;59.332;18.034;2023-04-07T03:57:06;102166.44;;;2.72;100.00
10824;BME280;39116;59.332;18.034;2023-04-07T03:59:29;102173.75;;;2.65;100.00
10824;BME280;39116;59.332;18.034;2023-04-07T04:01:51;102165.81;;;2.76;100.00
10824;BME280;39116;59.332;18.034;2023-04-07T04:04:13;102164.34;;;2.79;100.00
10824;BME280;39116;59.332;18.034;2023-04-07T04:06:35;102165.72;;;2.88;100.00
10824;BME280;39116;59.332;18.034;2023-04-07T04:08:57;102122.31;;;2.65;100.00
10824;BME280;39116;59.332;18.034;2023-04-07T04:11:19;102177.03;;;3.04;100.00
10824;BME280;39116;59.332;18.034;2023-04-07T04:13:41;102172.44;;;2.85;100.00
10824;BME280;39116;59.332;18.034;2023-04-07T04:16:05;102181.06;;;2.73;100.00
10824;BME280;39116;59.332;18.034;2023-04-07T04:18:27;102182.03;;;2.88;100.00
10824;BME280;39116;59.332;18.034;2023-04-07T04:20:49;102180.22;;;3.00;100.00
10824;BME280;39116;59.332;18.034;2023-04-07T04:23:11;102177.44;;;2.97;100.00
10824;BME280;39116;59.332;18.034;2023-04-07T04:25:33;102179.09;;;3.10;100.00
10824;BME280;39116;59.332;18.034;2023-04-07T04:27:55;102180.66;;;3.21;100.00
10824;BME280;39116;59.332;18.034;2023-04-07T04:30:17;102184.19;;;2.95;100.00
10824;BME280;39116;59.332;18.034;2023-04-07T04:32:40;102190.94;;;2.93;100.00
10824;BME280;39116;59.332;18.034;2023-04-07T04:35:03;102191.22;;;2.84;100.00
10824;BME280;39116;59.332;18.034;2023-04-07T04:37:25;102202.03;;;2.79;100.00
10824;BME280;39116;59.332;18.034;2023-04-07T04:39:47;102202.00;;;2.92;100.00
10824;BME280;39116;59.332;18.034;2023-04-07T04:42:09;102201.63;;;2.73;100.00
10824;BME280;39116;59.332;18.034;2023-04-07T04:44:31;102205.13;;;3.01;100.00
10824;BME280;39116;59.332;18.034;2023-04-07T04:46:53;102197.56;;;2.76;100.00
10824;BME280;39116;59.332;18.034;2023-04-07T04:49:16;102216.84;;;2.83;100.00
10824;BME280;39116;59.332;18.034;2023-04-07T04:51:38;102216.19;;;3.14;100.00
10824;BME280;39116;59.332;18.034;2023-04-07T04:54:00;102211.72;;;2.96;100.00
10824;BME280;39116;59.332;18.034;2023-04-07T04:56:23;102208.94;;;2.80;100.00
10824;BME280;39116;59.332;18.034;2023-04-07T04:58:45;102225.16;;;2.92;100.00
10824;BME280;39116;59.332;18.034;2023-04-07T05:01:07;102210.47;;;3.04;100.00
10824;BME280;39116;59.332;18.034;2023-04-07T05:03:29;102224.31;;;3.06;100.00
10824;BME280;39116;59.332;18.034;2023-04-07T05:05:52;102229.81;;;3.39;100.00
10824;BME280;39116;59.332;18.034;2023-04-07T05:08:14;102201.31;;;3.23;100.00
10824;BME280;39116;59.332;18.034;2023-04-07T05:10:37;102214.13;;;3.21;100.00
10824;BME280;39116;59.332;18.034;2023-04-07T05:12:59;102224.38;;;2.93;100.00
10824;BME280;39116;59.332;18.034;2023-04-07T05:15:21;102206.09;;;3.17;100.00
10824;BME280;39116;59.332;18.034;2023-04-07T05:17:43;102224.94;;;3.02;100.00
10824;BME280;39116;59.332;18.034;2023-04-07T05:20:10;102225.53;;;2.98;100.00
10824;BME280;39116;59.332;18.034;2023-04-07T05:22:33;102236.78;;;3.14;100.00
10824;BME280;39116;59.332;18.034;2023-04-07T05:24:55;102230.19;;;3.04;100.00
10824;BME280;39116;59.332;18.034;2023-04-07T05:27:17;102238.16;;;3.09;100.00
10824;BME280;39116;59.332;18.034;2023-04-07T05:29:39;102233.00;;;3.22;100.00
10824;BME280;39116;59.332;18.034;2023-04-07T05:32:03;102237.34;;;3.23;100.00
10824;BME280;39116;59.332;18.034;2023-04-07T05:34:25;102231.78;;;3.30;100.00
10824;BME280;39116;59.332;18.034;2023-04-07T05:36:47;102233.47;;;3.30;100.00
10824;BME280;39116;59.332;18.034;2023-04-07T05:39:10;102244.22;;;3.09;100.00
10824;BME280;39116;59.332;18.034;2023-04-07T05:41:32;102241.56;;;2.94;100.00
10824;BME280;39116;59.332;18.034;2023-04-07T05:43:54;102241.50;;;2.93;100.00
10824;BME280;39116;59.332;18.034;2023-04-07T05:46:16;102251.22;;;3.25;100.00
10824;BME280;39116;59.332;18.034;2023-04-07T05:48:38;102249.88;;;3.03;100.00
10824;BME280;39116;59.332;18.034;2023-04-07T05:51:00;102251.22;;;3.25;100.00
10824;BME280;39116;59.332;18.034;2023-04-07T05:53:22;102216.44;;;3.03;100.00
10824;BME280;39116;59.332;18.034;2023-04-07T05:55:45;102244.69;;;3.17;100.00
10824;BME280;39116;59.332;18.034;2023-04-07T05:58:07;102257.34;;;3.27;100.00
10824;BME280;39116;59.332;18.034;2023-04-07T06:00:29;102254.69;;;3.54;100.00
10824;BME280;39116;59.332;18.034;2023-04-07T06:02:51;102253.09;;;3.56;100.00
10824;BME280;39116;59.332;18.034;2023-04-07T06:05:13;102270.59;;;3.61;100.00
10824;BME280;39116;59.332;18.034;2023-04-07T06:07:35;102243.66;;;3.41;100.00
10824;BME280;39116;59.332;18.034;2023-04-07T06:09:57;102243.00;;;3.17;100.00
10824;BME280;39116;59.332;18.034;2023-04-07T06:12:20;102255.81;;;3.44;100.00
10824;BME280;39116;59.332;18.034;2023-04-07T06:14:42;102261.38;;;3.37;100.00
10824;BME280;39116;59.332;18.034;2023-04-07T06:17:04;102261.28;;;3.35;100.00
10824;BME280;39116;59.332;18.034;2023-04-07T06:19:26;102256.75;;;3.31;100.00
10824;BME280;39116;59.332;18.034;2023-04-07T06:21:48;102259.44;;;3.19;100.00
10824;BME280;39116;59.332;18.034;2023-04-07T06:24:10;102259.09;;;3.00;100.00
10824;BME280;39116;59.332;18.034;2023-04-07T06:26:32;102261.97;;;2.91;100.00
10824;BME280;39116;59.332;18.034;2023-04-07T06:28:55;102264.53;;;2.91;100.00
10824;BME280;39116;59.332;18.034;2023-04-07T06:31:17;102264.94;;;2.84;100.00
10824;BME280;39116;59.332;18.034;2023-04-07T06:33:39;102264.25;;;3.00;100.00
10824;BME280;39116;59.332;18.034;2023-04-07T06:36:01;102262.41;;;3.25;100.00
10824;BME280;39116;59.332;18.034;2023-04-07T06:38:23;102265.31;;;3.03;100.00
10824;BME280;39116;59.332;18.034;2023-04-07T06:40:45;102269.00;;;3.35;100.00
10824;BME280;39116;59.332;18.034;2023-04-07T06:43:07;102265.28;;;3.17;100.00
10824;BME280;39116;59.332;18.034;2023-04-07T06:45:30;102273.56;;;3.39;100.00
10824;BME280;39116;59.332;18.034;2023-04-07T06:47:52;102272.38;;;3.34;100.00
10824;BME280;39116;59.332;18.034;2023-04-07T06:50:14;102277.00;;;3.40;100.00
10824;BME280;39116;59.332;18.034;2023-04-07T06:52:40;102272.91;;;3.29;100.00
10824;BME280;39116;59.332;18.034;2023-04-07T06:55:04;102290.88;;;3.42;100.00
10824;BME280;39116;59.332;18.034;2023-04-07T06:57:27;102120.19;;;2.45;100.00
10824;BME280;39116;59.332;18.034;2023-04-07T06:59:49;102273.97;;;3.32;100.00
10824;BME280;39116;59.332;18.034;2023-04-07T07:02:12;102267.59;;;3.40;100.00
10824;BME280;39116;59.332;18.034;2023-04-07T07:04:34;102271.41;;;3.32;100.00
10824;BME280;39116;59.332;18.034;2023-04-07T07:06:56;102274.28;;;3.23;100.00
10824;BME280;39116;59.332;18.034;2023-04-07T07:09:18;102277.84;;;3.25;100.00
10824;BME280;39116;59.332;18.034;2023-04-07T07:11:40;102274.13;;;3.35;100.00
10824;BME280;39116;59.332;18.034;2023-04-07T07:14:02;102279.78;;;2.88;100.00
10824;BME280;39116;59.332;18.034;2023-04-07T07:16:23;102281.53;;;3.02;100.00
10824;BME280;39116;59.332;18.034;2023-04-07T07:18:47;102282.94;;;3.11;100.00
10824;BME280;39116;59.332;18.034;2023-04-07T07:21:09;102287.25;;;3.12;100.00
10824;BME280;39116;59.332;18.034;2023-04-07T07:23:31;102276.00;;;2.83;100.00
10824;BME280;39116;59.332;18.034;2023-04-07T07:25:53;102282.25;;;3.00;100.00
10824;BME280;39116;59.332;18.034;2023-04-07T07:28:15;102286.59;;;3.14;100.00
10824;BME280;39116;59.332;18.034;2023-04-07T07:30:38;102287.25;;;3.53;100.00
10824;BME280;39116;59.332;18.034;2023-04-07T07:33:00;102284.97;;;3.58;100.00
10824;BME280;39116;59.332;18.034;2023-04-07T07:35:24;102281.75;;;3.75;100.00
10824;BME280;39116;59.332;18.034;2023-04-07T07:37:46;102294.31;;;3.56;100.00
10824;BME280;39116;59.332;18.034;2023-04-07T07:40:08;102291.38;;;3.36;100.00
10824;BME280;39116;59.332;18.034;2023-04-07T07:42:30;102288.91;;;3.38;100.00
10824;BME280;39116;59.332;18.034;2023-04-07T07:44:52;102291.19;;;3.33;100.00
10824;BME280;39116;59.332;18.034;2023-04-07T07:47:14;102300.28;;;3.41;100.00
10824;BME280;39116;59.332;18.034;2023-04-07T07:49:36;102292.00;;;3.32;100.00
10824;BME280;39116;59.332;18.034;2023-04-07T07:51:59;102300.28;;;3.41;100.00
10824;BME280;39116;59.332;18.034;2023-04-07T07:54:22;102305.22;;;3.38;100.00
10824;BME280;39116;59.332;18.034;2023-04-07T07:56:43;102297.16;;;3.19;100.00
10824;BME280;39116;59.332;18.034;2023-04-07T07:59:05;102305.44;;;3.41;100.00
10824;BME280;39116;59.332;18.034;2023-04-07T08:01:27;102305.81;;;3.48;100.00
10824;BME280;39116;59.332;18.034;2023-04-07T08:03:49;102317.88;;;3.49;100.00
10824;BME280;39116;59.332;18.034;2023-04-07T08:06:11;102306.56;;;3.60;100.00
10824;BME280;39116;59.332;18.034;2023-04-07T08:08:35;102313.47;;;3.89;100.00
10824;BME280;39116;59.332;18.034;2023-04-07T08:10:56;102315.78;;;3.56;100.00
10824;BME280;39116;59.332;18.034;2023-04-07T08:13:19;102321.34;;;3.62;100.00
10824;BME280;39116;59.332;18.034;2023-04-07T08:15:41;102317.13;;;3.93;100.00
10824;BME280;39116;59.332;18.034;2023-04-07T08:18:03;102312.78;;;3.63;100.00
10824;BME280;39116;59.332;18.034;2023-04-07T08:20:25;102320.41;;;3.75;100.00
10824;BME280;39116;59.332;18.034;2023-04-07T08:22:48;102324.41;;;3.85;100.00
10824;BME280;39116;59.332;18.034;2023-04-07T08:25:11;102319.84;;;4.09;100.00
10824;BME280;39116;59.332;18.034;2023-04-07T08:27:33;102329.78;;;4.03;100.00
10824;BME280;39116;59.332;18.034;2023-04-07T08:29:59;102324.72;;;4.05;100.00
10824;BME280;39116;59.332;18.034;2023-04-07T08:32:21;102326.09;;;3.85;100.00
10824;BME280;39116;59.332;18.034;2023-04-07T08:34:43;102331.88;;;3.80;100.00
10824;BME280;39116;59.332;18.034;2023-04-07T08:37:05;102332.25;;;4.01;100.00
10824;BME280;39116;59.332;18.034;2023-04-07T08:39:28;102329.66;;;3.87;100.00
10824;BME280;39116;59.332;18.034;2023-04-07T08:41:52;102330.59;;;4.02;100.00
10824;BME280;39116;59.332;18.034;2023-04-07T08:44:16;102327.44;;;3.93;100.00
10824;BME280;39116;59.332;18.034;2023-04-07T08:46:38;102296.53;;;3.93;100.00
10824;BME280;39116;59.332;18.034;2023-04-07T08:49:03;102335.47;;;4.12;100.00
10824;BME280;39116;59.332;18.034;2023-04-07T08:51:30;102329.63;;;3.72;100.00
10824;BME280;39116;59.332;18.034;2023-04-07T08:53:53;102330.44;;;3.86;100.00
10824;BME280;39116;59.332;18.034;2023-04-07T08:56:17;102330.09;;;3.94;100.00
10824;BME280;39116;59.332;18.034;2023-04-07T08:58:41;102330.59;;;4.02;100.00
10824;BME280;39116;59.332;18.034;2023-04-07T09:01:03;102332.31;;;3.60;100.00
10824;BME280;39116;59.332;18.034;2023-04-07T09:03:26;102325.69;;;3.92;100.00
10824;BME280;39116;59.332;18.034;2023-04-07T09:05:49;102329.97;;;4.06;100.00
10824;BME280;39116;59.332;18.034;2023-04-07T09:08:11;102324.75;;;4.19;100.00
10824;BME280;39116;59.332;18.034;2023-04-07T09:10:35;102328.25;;;4.35;100.00
10824;BME280;39116;59.332;18.034;2023-04-07T09:12:57;102331.25;;;4.13;100.00
10824;BME280;39116;59.332;18.034;2023-04-07T09:15:21;102337.63;;;4.19;100.00
10824;BME280;39116;59.332;18.034;2023-04-07T09:17:43;102338.31;;;4.02;100.00
10824;BME280;39116;59.332;18.034;2023-04-07T09:20:06;102339.41;;;4.20;100.00
10824;BME280;39116;59.332;18.034;2023-04-07T09:22:36;102333.72;;;4.26;100.00
10824;BME280;39116;59.332;18.034;2023-04-07T09:25:09;102327.84;;;4.29;100.00
10824;BME280;39116;59.332;18.034;2023-04-07T09:27:31;102336.75;;;4.34;100.00
10824;BME280;39116;59.332;18.034;2023-04-07T09:30:10;102335.56;;;3.99;100.00
10824;BME280;39116;59.332;18.034;2023-04-07T09:32:36;102352.75;;;4.13;100.00
10824;BME280;39116;59.332;18.034;2023-04-07T09:34:59;102330.63;;;4.32;100.00
10824;BME280;39116;59.332;18.034;2023-04-07T09:37:21;102319.13;;;4.12;100.00
10824;BME280;39116;59.332;18.034;2023-04-07T09:39:52;102315.19;;;3.89;100.00
10824;BME280;39116;59.332;18.034;2023-04-07T09:42:14;102346.94;;;3.74;100.00
10824;BME280;39116;59.332;18.034;2023-04-07T09:44:38;102344.81;;;4.10;100.00
10824;BME280;39116;59.332;18.034;2023-04-07T09:47:01;102345.88;;;4.14;100.00
10824;BME280;39116;59.332;18.034;2023-04-07T09:49:25;102350.47;;;4.33;100.00
10824;BME280;39116;59.332;18.034;2023-04-07T09:51:55;102361.38;;;4.29;100.00
10824;BME280;39116;59.332;18.034;2023-04-07T09:54:31;102358.72;;;4.27;100.00
10824;BME280;39116;59.332;18.034;2023-04-07T09:56:54;102352.22;;;4.34;100.00
10824;BME280;39116;59.332;18.034;2023-04-07T09:59:17;102347.94;;;4.19;100.00
10824;BME280;39116;59.332;18.034;2023-04-07T10:01:39;102361.50;;;4.45;100.00
10824;BME280;39116;59.332;18.034;2023-04-07T10:04:02;102344.25;;;4.29;100.00
10824;BME280;39116;59.332;18.034;2023-04-07T10:06:27;102362.72;;;4.37;100.00
10824;BME280;39116;59.332;18.034;2023-04-07T10:08:50;102370.72;;;4.27;100.00
10824;BME280;39116;59.332;18.034;2023-04-07T10:11:12;102360.28;;;4.25;100.00
10824;BME280;39116;59.332;18.034;2023-04-07T10:13:35;102368.97;;;4.55;100.00
10824;BME280;39116;59.332;18.034;2023-04-07T10:15:57;102364.88;;;4.44;100.00
10824;BME280;39116;59.332;18.034;2023-04-07T10:18:20;102363.72;;;4.39;100.00
10824;BME280;39116;59.332;18.034;2023-04-07T10:20:44;102364.53;;;4.38;100.00
10824;BME280;39116;59.332;18.034;2023-04-07T10:23:14;102364.97;;;4.61;100.00
10824;BME280;39116;59.332;18.034;2023-04-07T10:25:37;102362.91;;;4.70;100.00
10824;BME280;39116;59.332;18.034;2023-04-07T10:28:04;102364.78;;;4.87;100.00
10824;BME280;39116;59.332;18.034;2023-04-07T10:30:28;102360.34;;;4.55;100.00
10824;BME280;39116;59.332;18.034;2023-04-07T10:32:52;102361.56;;;4.47;100.00
10824;BME280;39116;59.332;18.034;2023-04-07T10:35:15;102369.50;;;4.50;100.00
10824;BME280;39116;59.332;18.034;2023-04-07T10:37:37;102367.69;;;4.34;100.00
10824;BME280;39116;59.332;18.034;2023-04-07T10:40:28;102358.50;;;4.67;100.00
10824;BME280;39116;59.332;18.034;2023-04-07T10:42:50;102365.75;;;4.45;100.00
10824;BME280;39116;59.332;18.034;2023-04-07T10:45:13;102375.91;;;4.56;100.00
10824;BME280;39116;59.332;18.034;2023-04-07T10:48:10;102352.53;;;4.53;100.00
10824;BME280;39116;59.332;18.034;2023-04-07T10:50:32;102365.06;;;4.47;100.00
10824;BME280;39116;59.332;18.034;2023-04-07T10:53:04;102361.50;;;4.45;100.00
10824;BME280;39116;59.332;18.034;2023-04-07T10:55:31;102371.72;;;4.58;100.00
10824;BME280;39116;59.332;18.034;2023-04-07T10:58:17;102368.59;;;4.79;100.00
10824;BME280;39116;59.332;18.034;2023-04-07T11:00:39;102364.34;;;4.65;100.00
10824;BME280;39116;59.332;18.034;2023-04-07T11:03:09;102375.03;;;4.56;100.00
10824;BME280;39116;59.332;18.034;2023-04-07T11:05:33;102367.91;;;4.96;100.00
10824;BME280;39116;59.332;18.034;2023-04-07T11:07:58;102367.81;;;4.80;100.00
10824;BME280;39116;59.332;18.034;2023-04-07T11:10:24;102378.56;;;4.43;100.00
10824;BME280;39116;59.332;18.034;2023-04-07T11:13:02;102377.19;;;4.63;100.00
10824;BME280;39116;59.332;18.034;2023-04-07T11:15:25;102381.25;;;4.89;100.00
10824;BME280;39116;59.332;18.034;2023-04-07T11:18:05;102382.41;;;4.80;100.00
10824;BME280;39116;59.332;18.034;2023-04-07T11:20:39;102383.91;;;4.61;100.00
10824;BME280;39116;59.332;18.034;2023-04-07T11:23:02;102384.38;;;4.69;100.00
10824;BME280;39116;59.332;18.034;2023-04-07T11:25:23;102364.34;;;4.65;100.00
10824;BME280;39116;59.332;18.034;2023-04-07T11:27:48;102377.69;;;4.87;100.00
10824;BME280;39116;59.332;18.034;2023-04-07T11:30:12;102383.53;;;5.14;100.00
10824;BME280;39116;59.332;18.034;2023-04-07T11:32:34;102375.69;;;5.13;100.00
10824;BME280;39116;59.332;18.034;2023-04-07T11:34:56;102379.00;;;5.10;100.00
10824;BME280;39116;59.332;18.034;2023-04-07T11:37:19;102381.78;;;4.69;100.00
10824;BME280;39116;59.332;18.034;2023-04-07T11:39:41;102378.22;;;4.96;100.00
10824;BME280;39116;59.332;18.034;2023-04-07T11:42:05;102376.09;;;4.89;100.00
10824;BME280;39116;59.332;18.034;2023-04-07T11:44:27;102368.97;;;4.85;100.00
10824;BME280;39116;59.332;18.034;2023-04-07T11:46:55;102372.66;;;5.20;100.00
10824;BME280;39116;59.332;18.034;2023-04-07T11:49:17;102379.19;;;5.13;100.00
10824;BME280;39116;59.332;18.034;2023-04-07T11:51:41;102370.91;;;5.19;100.00
10824;BME280;39116;59.332;18.034;2023-04-07T11:54:03;102360.25;;;4.83;100.00
10824;BME280;39116;59.332;18.034;2023-04-07T11:56:25;102376.63;;;4.69;100.00
10824;BME280;39116;59.332;18.034;2023-04-07T11:58:51;102362.66;;;4.80;100.00
10824;BME280;39116;59.332;18.034;2023-04-07T12:01:13;102379.66;;;4.76;100.00
10824;BME280;39116;59.332;18.034;2023-04-07T12:03:37;102383.19;;;4.93;100.00
10824;BME280;39116;59.332;18.034;2023-04-07T12:06:04;102374.59;;;4.78;100.00
10824;BME280;39116;59.332;18.034;2023-04-07T12:08:37;102382.94;;;4.89;100.00
10824;BME280;39116;59.332;18.034;2023-04-07T12:11:02;102381.53;;;4.94;100.00
10824;BME280;39116;59.332;18.034;2023-04-07T12:13:24;102349.88;;;5.13;100.00
10824;BME280;39116;59.332;18.034;2023-04-07T12:15:47;102376.91;;;5.34;100.00
10824;BME280;39116;59.332;18.034;2023-04-07T12:18:14;102381.22;;;5.19;100.00
10824;BME280;39116;59.332;18.034;2023-04-07T12:20:37;102378.13;;;5.41;100.00